Kingston, New Mexico
Current Conditions -  °F | °C
As of 3:53 AM on Sunday 23 Nov 2014 (Local Time) from KTCS Reporting Station
Clear Clear  
Wind Chill:   Ceiling: Unl
Heat Index:   Visibility: 10mi
Dew Point: -7°   Wind: 5mph
Humidity: 43%   Direction: 100°E
Pressure: 29.83"   Gusts: NA
Location:  32.8972°N, 107.644°W
Report Text: KTCS 231053Z AUTO 10004KT 10SM CLR 04/M07 A2983 RMK AO2 SLP057 T00441072 TSNO
Loading
Personal Weather Stations






























Interactive Weather Map New forecast layout! Learn more

10-Day Weather Forecast

Advertisements
Track Severe Weather on mobile